KOJC/OJC METAR and TAF weather

Enter ICAO airport designator
Station Type Date Time Source
KOJC METAR 2018/12/15 04:53 UTC NOAA

KOJC 150453Z AUTO 34007KT 10SM CLR 00/M05 A3017 RMK AO2 SLP224 T00001050


Station Type Date Time Source
KOJC Decoded METAR 2018/12/15 04:53 UTC NOAA

OLATHE JOHNSON CO EXECUTIVE, KS, United States (KOJC) 38-50N 94-44W 326M
Dec 14, 2018 - 11:53 PM EST / 2018.12.15 0453 UTC
Wind: from the NNW (340 degrees) at 8 MPH (7 KT):0
Visibility: 10 mile(s):0
Sky conditions: clear
Temperature: 32.0 F (0.0 C)
Windchill: 24 F (-4 C):1
Dew Point: 23.0 F (-5.0 C)
Relative Humidity: 69%
Pressure (altimeter): 30.17 in. Hg (1021 hPa)
ob: KOJC 150453Z AUTO 34007KT 10SM CLR 00/M05 A3017 RMK AO2 SLP224 T00001050
cycle: 5

Station Type Date Time Source
KOJC TAF UTC NOAA

Error!


Example: see airport list